x

Central Caribbean - 210 Nm Sse Of Kingston, Jamaica (42058) Wave Buoy

2:50 - Sun 1st Mar 2015 All times are EST. -5 hours from GMT.

  • Sig Wave height 7.9ft
  • Swell Direction
  • Peak Period 9s
  • Average Period 6s
  • Wind
    22mph, 25mph gusts
  • Sea Temp 80°f
  • Aire Temp 80°f
  • Sea Pressure 1014mb
  • Central Caribbean - 210 Nm Sse Of Kingston, Jamaica
  • Central Caribbean - 210 Nm Sse Of Kingston, Jamaica

More Historic Weather Station data

Upgrade to MSW Pro to gain access to the past 30 days of data for over 8000 Wavebouys and Weather Stations around the globe.

Join Pro

Comparision Forecast

View Surf forecast
   
dom 03/01 2:50 8ft 9s 6s 22 25 mph 1014mb 80f 80f
1:50 8ft 8s 6s 25 29 mph 1014.9mb 80f 80f
12:50 8ft 9s 6s 22 27 mph 1015.6mb 80f 80f
11:50 7.5ft 8s 6s 25 29 mph 1016.2mb 80f 80f
10:50 8ft 8s 6s 25 31 mph 1017.2mb 80f 79f
9:50 9ft 8s 6s 20 25 mph 1017.9mb 80f 77f
8:50 9ft 8s 6s 22 25 mph 1017.2mb 80f 79f
7:50 8ft 8s 6s 25 29 mph 1016.4mb 80f 80f
6:50 7.5ft 8s 6s 22 27 mph 1016.1mb 80f 80f
5:50 8ft 8s 6s 22 27 mph 1015.1mb 80f 80f
4:50 8ft 8s 6s 22 29 mph 1014.6mb 80f 80f
3:50 8ft 8s 6s 25 31 mph 1014.4mb 80f 80f
2:50 8ft 8s 6s 25 29 mph 1014.4mb 80f 80f
1:50 8ft 8s 6s 25 34 mph 1014.7mb 80f 80f
12:50 7.5ft 8s 6s 25 29 mph 1015.2mb 80f 80f
sáb 02/28 11:50 8ft 9s 6s 25 31 mph 1015.8mb 80f 80f
10:50 8ft 7s 6s 25 29 mph 1016mb 80f 80f
9:50 7.5ft 9s 6s 25 29 mph 1016.1mb 80f 80f
8:50 8ft 8s 6s 25 29 mph 1015.7mb 80f 80f
7:50 8ft 8s 6s 22 27 mph 1015mb 80f 80f
6:50 7.5ft 8s 6s 25 29 mph 1014.3mb 80f 80f
5:50 8.5ft 8s 6s 25 27 mph 1013.7mb 80f 80f
4:50 7.5ft 8s 6s 22 27 mph 1013.7mb 80f 80f
3:50 7.5ft 8s 6s 22 27 mph 1013.3mb 80f 80f
2:50 8ft 8s 6s 25 27 mph 1013.7mb 80f 80f
1:50 8ft 8s 6s 25 29 mph 1014.2mb 80f 80f
12:50 7.5ft 8s 6s 22 27 mph 1015mb 80f 80f
11:50 8ft 8s 6s 25 29 mph 1015.7mb 80f 80f
10:50 8ft 8s 6s 25 29 mph 1016.4mb 80f 80f
9:50 8ft 8s 6s 25 29 mph 1016.6mb 80f 80f
8:50 8.5ft 8s 6s 25 29 mph 1016.3mb 80f 80f
7:50 7.5ft 8s 6s 27 31 mph 1015.5mb 80f 80f
6:50 8.5ft 7s 6s 25 29 mph 1014.5mb 80f 80f
5:50 8ft 8s 6s 25 29 mph 1013.8mb 80f 80f
4:50 8ft 8s 6s 25 29 mph 1013.3mb 80f 80f
3:50 8ft 8s 6s 25 29 mph 1013.2mb 80f 80f
2:50 8.5ft 8s 6s 27 31 mph 1013.2mb 80f 80f
1:50 7.5ft 8s 6s 25 29 mph 1013.1mb 80f 80f
12:50 8ft 8s 6s 27 31 mph 1013.4mb 80f 80f
vie 02/27 11:50 8ft 8s 6s 25 31 mph 1013.9mb 80f 80f
10:50 7ft 8s 5s 25 29 mph 1013.9mb 80f 80f
9:50 7ft 8s 5s 25 29 mph 1013.6mb 80f 80f
8:50 7ft 8s 6s 22 27 mph 1013.5mb 80f 80f
7:50 6.5ft 8s 5s 25 29 mph 1012.9mb 80f 80f
6:50 7ft 8s 6s 25 29 mph 1012.1mb 80f 80f
5:50 6.5ft 8s 5s 22 27 mph 1011.8mb 80f 80f
4:50 7ft 8s 6s 20 25 mph 1011.7mb 80f 80f
3:50 6.5ft 8s 6s 20 25 mph 1011.6mb 80f 80f
2:50 7ft 8s 6s 22 27 mph 1011.8mb 80f 80f
1:50 8ft 8s 6s 22 27 mph 1012.5mb 80f 80f
12:50 7ft 8s 6s 22 27 mph 1013.5mb 80f 80f
11:50 7.5ft 8s 6s 20 25 mph 1014.3mb 80f 80f
10:50 7ft 8s 6s 22 29 mph 1015.1mb 80f 80f
9:50 8ft 8s 6s 25 29 mph 1015.6mb 80f 80f
8:50 8ft 8s 6s 22 27 mph 1015.4mb 80f 80f
7:50 9ft 8s 6s 22 27 mph 1014.8mb 80f 80f
6:50 9ft 8s 6s 22 25 mph 1013.9mb 81f 80f
5:50 8ft 8s 6s 25 31 mph 1012.7mb 81f 80f
4:50 8ft 8s 6s 25 31 mph 1012.2mb 81f 80f
3:50 7ft 8s 5s 25 31 mph 1011.8mb 81f 80f
2:50 8ft 8s 6s 25 31 mph 1011.9mb 81f 80f
1:50 7ft 8s 6s 25 29 mph 1012.4mb 81f 80f
12:50 8ft 8s 6s 25 31 mph 1012.7mb 81f 80f
jue 02/26 11:50 8ft 8s 6s 25 29 mph 1013mb 81f 80f
10:50 8ft 8s 6s 25 27 mph 1013.2mb 81f 80f
9:50 8ft 8s 6s 22 29 mph 1013.2mb 81f 80f
8:50 7.5ft 8s 6s 22 27 mph 1013mb 81f 80f
7:50 8ft 8s 6s 20 25 mph 1012.5mb 81f 81f
6:50 7ft 8s 6s 20 25 mph 1011.8mb 81f 81f
5:50 7.5ft 8s 6s 22 27 mph 1011.4mb 81f 81f
4:50 8ft 8s 6s 20 25 mph 1011mb 81f 81f
3:50 7.5ft 8s 6s 20 25 mph 1010.8mb 81f 81f
2:50 8ft 7s 6s 22 27 mph 1011mb 81f 81f
1:50 7ft 8s 5s 22 27 mph 1011.6mb 81f 81f
12:50 8ft 7s 6s 25 29 mph 1012.2mb 81f 81f
11:50 7.5ft 8s 6s 22 27 mph 1013mb 81f 81f
10:50 8ft 8s 6s 25 27 mph 1013.6mb 81f 81f
9:50 7.5ft 8s 6s 27 31 mph 1013.8mb 81f 81f
8:50 7.5ft 7s 6s 22 27 mph 1013.4mb 81f 80f
7:50 8ft 8s 6s 25 27 mph 1012.8mb 81f 80f
6:50 8ft 7s 6s 25 31 mph 1012.4mb 81f 80f
5:50 8ft 7s 6s 25 29 mph 1011.7mb 81f 80f
4:50 8ft 7s 6s 25 29 mph 1011.1mb 81f 80f
3:50 8ft 8s 6s 25 29 mph 1011mb 81f 80f
2:50 7.5ft 8s 6s 25 29 mph 1011.2mb 81f 80f
1:50 7ft 8s 5s 25 29 mph 1011.9mb 81f 80f
12:50 7ft 7s 5s 25 31 mph 1012.6mb 81f 80f
mié 02/25 11:50 7ft 7s 5s 25 29 mph 1013.1mb 81f 80f
10:50 7ft 7s 5s 27 31 mph 1013.1mb 81f 80f
9:50 6.5ft 8s 5s 25 27 mph 1013.2mb 81f 80f